Time;durP1;ratioP1;P1;durP2;ratioP2;P2;SDS_P1;SDS_P2;PMS_P1;PMS_P2;Temp;Humidity;BMP_temperature;BMP_pressure;BME280_temperature;BME280_humidity;BME280_pressure;Samples;Min_cycle;Max_cycle;Signal;HPM_P1;HPM_P2
2022/11/21 00:01:15;;;;;;;24.40;6.65;;;;;;;17.13;100.00;99103.84;4990677;28;20065;-64
2022/11/21 00:03:41;;;;;;;38.40;6.50;;;;;;;16.76;100.00;99041.31;4991529;28;20030;-65
2022/11/21 00:06:06;;;;;;;40.92;7.18;;;;;;;16.73;100.00;99045.84;4990363;28;20039;-66
2022/11/21 00:08:31;;;;;;;33.03;6.40;;;;;;;16.97;100.00;99067.28;4991726;28;20485;-65
2022/11/21 00:11:00;;;;;;;33.97;7.03;;;;;;;16.99;100.00;99053.41;4990525;28;20038;-65
2022/11/21 00:13:26;;;;;;;47.28;7.40;;;;;;;17.12;100.00;99079.88;4991080;28;20442;-65
2022/11/21 00:15:51;;;;;;;36.92;7.07;;;;;;;16.85;100.00;99022.75;4991739;28;20030;-64
2022/11/21 00:18:16;;;;;;;37.40;6.88;;;;;;;16.87;100.00;99038.84;4991555;28;20460;-64
2022/11/21 00:20:43;;;;;;;37.88;7.70;;;;;;;17.20;100.00;99066.50;4990834;28;20030;-65
2022/11/21 00:23:09;;;;;;;38.22;7.03;;;;;;;16.92;100.00;99018.81;4991167;28;20034;-65
2022/11/21 00:25:35;;;;;;;33.20;6.63;;;;;;;16.93;100.00;99022.19;4989745;28;20034;-65
2022/11/21 00:28:00;;;;;;;33.10;6.50;;;;;;;17.13;100.00;99073.81;4989948;28;20413;-64
2022/11/21 00:30:26;;;;;;;35.28;6.82;;;;;;;17.07;100.00;99073.44;4989387;28;20034;-64
2022/11/21 00:32:51;;;;;;;40.05;7.40;;;;;;;16.74;100.00;99019.28;4991274;28;20041;-65
2022/11/21 00:35:17;;;;;;;40.72;7.38;;;;;;;16.71;100.00;99006.63;4991090;28;20034;-65
2022/11/21 00:37:43;;;;;;;34.15;6.68;;;;;;;16.86;100.00;99034.63;4989564;28;20050;-65
2022/11/21 00:40:09;;;;;;;32.83;6.57;;;;;;;16.99;100.00;99066.25;4991318;28;20027;-65
2022/11/21 00:42:34;;;;;;;37.70;7.18;;;;;;;16.91;100.00;99052.28;4990852;28;20117;-65
2022/11/21 00:44:59;;;;;;;36.83;6.72;;;;;;;16.69;100.00;98991.34;4990909;28;20096;-65
2022/11/21 00:47:25;;;;;;;32.38;6.95;;;;;;;16.71;100.00;99006.63;4989454;28;20525;-65
2022/11/21 00:49:50;;;;;;;36.60;7.40;;;;;;;16.96;100.00;99039.94;4990580;28;20117;-65
2022/11/21 00:52:17;;;;;;;31.77;6.90;;;;;;;16.74;100.00;98999.53;4991124;28;20030;-65
2022/11/21 00:54:42;;;;;;;41.15;7.50;;;;;;;16.99;100.00;99050.03;4989117;28;20104;-65
2022/11/21 00:57:08;;;;;;;33.38;6.63;;;;;;;16.61;100.00;98973.06;4991053;28;20798;-66
2022/11/21 00:59:33;;;;;;;33.70;7.30;;;;;;;16.65;100.00;98983.94;4991665;28;20624;-65
2022/11/21 01:01:59;;;;;;;34.17;7.07;;;;;;;16.98;100.00;99048.38;4991358;28;20027;-65
2022/11/21 01:04:24;;;;;;;32.97;7.55;;;;;;;16.77;100.00;99007.03;4991023;28;20481;-65
2022/11/21 01:06:50;;;;;;;26.52;6.55;;;;;;;16.57;100.00;98984.47;4989219;28;20034;-65
2022/11/21 01:09:15;;;;;;;39.00;7.55;;;;;;;16.75;100.00;99023.47;4991044;28;20092;-65
2022/11/21 01:11:40;;;;;;;35.10;6.97;;;;;;;16.57;100.00;98981.09;4990566;28;20417;-65
2022/11/21 01:14:06;;;;;;;32.63;7.00;;;;;;;16.48;100.00;98949.13;4990267;28;20046;-64
2022/11/21 01:16:31;;;;;;;31.23;6.68;;;;;;;16.86;100.00;98993.56;4990813;28;20027;-65
2022/11/21 01:18:57;;;;;;;29.55;6.32;;;;;;;16.43;100.00;98905.03;4990785;28;20108;-65
2022/11/21 01:21:26;;;;;;;32.15;6.00;;;;;;;16.61;100.00;98949.97;4990979;28;20061;-65
2022/11/21 01:23:51;;;;;;;32.78;5.80;;;;;;;16.59;100.00;98933.88;4990861;28;20045;-65
2022/11/21 01:26:22;;;;;;;28.83;6.70;;;;;;;16.67;100.00;98957.25;4991175;28;20034;-66
2022/11/21 01:28:47;;;;;;;28.42;6.20;;;;;;;16.65;100.00;98968.56;4990886;28;20053;-68
2022/11/21 01:31:16;;;;;;;30.58;6.63;;;;;;;16.43;100.00;98939.22;4990929;28;20493;-67
2022/11/21 01:33:42;;;;;;;30.35;6.65;;;;;;;16.39;100.00;98932.66;4990845;28;20038;-67
2022/11/21 01:36:24;;;;;;;30.85;6.57;;;;;;;16.67;100.00;99000.88;4990797;28;20417;-66
2022/11/21 01:38:52;;;;;;;32.97;6.57;;;;;;;16.64;100.00;98995.94;4989228;28;20050;-67
2022/11/21 01:41:20;;;;;;;27.90;6.47;;;;;;;16.37;100.00;98949.06;4992663;28;20420;-66
2022/11/21 01:43:47;;;;;;;32.85;6.63;;;;;;;16.57;100.00;98994.75;4998323;28;20069;-67
2022/11/21 01:46:18;;;;;;;27.70;6.38;;;;;;;16.26;100.00;98944.66;5008427;28;20034;-66
2022/11/21 01:48:49;;;;;;;23.25;5.72;;;;;;;16.31;100.00;98936.66;5004368;28;20026;-65
2022/11/21 01:51:20;;;;;;;27.45;6.93;;;;;;;16.64;100.00;98980.56;4993240;28;20452;-65
2022/11/21 01:53:52;;;;;;;29.88;6.57;;;;;;;16.69;100.00;98975.94;4991100;28;20046;-65
2022/11/21 01:56:18;;;;;;;37.92;6.55;;;;;;;16.43;100.00;98926.38;4990717;28;20031;-65
2022/11/21 01:58:46;;;;;;;30.02;6.55;;;;;;;16.58;100.00;98945.03;5005292;28;20110;-65
2022/11/21 02:01:11;;;;;;;32.58;6.53;;;;;;;16.64;100.00;98941.25;4990662;28;20030;-65
2022/11/21 02:03:40;;;;;;;38.97;7.03;;;;;;;16.49;100.00;98920.03;4991965;28;20471;-67
2022/11/21 02:06:07;;;;;;;32.65;6.68;;;;;;;16.72;100.00;98959.50;4992825;28;20034;-65
2022/11/21 02:08:33;;;;;;;27.17;6.30;;;;;;;16.54;100.00;98912.81;4993866;28;20065;-65
2022/11/21 02:11:34;;;;;;;24.45;6.10;;;;;;;16.85;100.00;98947.44;4993509;28;20061;-65
2022/11/21 02:14:00;;;;;;;33.88;6.28;;;;;;;16.51;100.00;98879.69;4998946;28;20049;-65
2022/11/21 02:16:26;;;;;;;30.98;6.00;;;;;;;16.44;100.00;98869.00;5001733;28;20456;-65
2022/11/21 02:18:51;;;;;;;31.30;6.40;;;;;;;16.85;100.00;98930.31;4994170;28;20023;-65
2022/11/21 02:21:29;;;;;;;28.77;5.68;;;;;;;16.90;100.00;98914.56;4993590;28;20491;-65
2022/11/21 02:24:19;;;;;;;25.67;5.72;;;;;;;17.10;100.00;98908.81;4993572;28;20611;-65
2022/11/21 02:26:47;;;;;;;32.42;5.50;;;;;;;17.09;100.00;98889.22;4993494;28;20501;-66
2022/11/21 02:29:12;;;;;;;34.38;6.15;;;;;;;16.92;100.00;98859.59;4993708;28;20084;-66
2022/11/21 02:31:38;;;;;;;29.52;6.75;;;;;;;17.32;100.00;98899.47;4992452;28;20034;-66
2022/11/21 02:34:03;;;;;;;31.98;6.10;;;;;;;17.02;100.00;98850.31;4993287;28;20048;-66
2022/11/21 02:36:47;;;;;;;34.63;6.35;;;;;;;17.43;100.00;98913.28;4993194;28;20482;-65
2022/11/21 02:39:25;;;;;;;31.38;6.07;;;;;;;17.40;100.00;98904.06;4991205;28;20498;-66
2022/11/21 02:41:59;;;;;;;26.30;5.95;;;;;;;17.41;100.00;98894.59;4992100;28;20121;-66
2022/11/21 02:44:44;;;;;;;26.88;6.15;;;;;;;16.95;100.00;98831.16;4999191;28;20409;-66
2022/11/21 02:47:09;;;;;;;34.53;6.28;;;;;;;17.25;100.00;98890.56;4992984;28;20035;-66
2022/11/21 02:49:52;;;;;;;34.92;6.07;;;;;;;17.02;100.00;98840.03;4993087;28;20026;-66
2022/11/21 02:52:18;;;;;;;33.05;6.07;;;;;;;17.07;100.00;98858.50;4992040;28;20038;-66
2022/11/21 02:54:43;;;;;;;35.75;6.50;;;;;;;17.29;100.00;98871.41;4992655;28;20523;-66
2022/11/21 02:57:08;;;;;;;33.55;6.10;;;;;;;17.31;100.00;98895.25;4991560;28;20032;-66
2022/11/21 02:59:34;;;;;;;25.83;5.60;;;;;;;17.10;100.00;98852.31;4990893;28;20030;-65
2022/11/21 03:01:59;;;;;;;28.40;6.68;;;;;;;17.19;100.00;98872.22;4991143;28;20453;-66
2022/11/21 03:04:25;;;;;;;31.08;5.47;;;;;;;17.05;100.00;98849.28;4992777;28;20096;-66
2022/11/21 03:06:51;;;;;;;27.95;6.05;;;;;;;16.81;100.00;98813.38;4992653;28;20034;-67
2022/11/21 03:09:17;;;;;;;33.03;5.90;;;;;;;17.03;100.00;98862.25;4991399;28;20463;-66
2022/11/21 03:11:42;;;;;;;34.55;6.13;;;;;;;17.01;100.00;98853.00;4992643;28;20029;-66
2022/11/21 03:14:07;;;;;;;34.90;6.25;;;;;;;17.06;100.00;98861.19;4991451;28;20034;-67
2022/11/21 03:16:33;;;;;;;31.42;6.05;;;;;;;16.98;100.00;98856.59;4992409;28;20034;-67
2022/11/21 03:18:58;;;;;;;31.67;6.00;;;;;;;16.85;100.00;98837.88;4992411;28;20040;-67
2022/11/21 03:21:24;;;;;;;30.90;6.80;;;;;;;16.67;100.00;98795.56;4992569;28;20412;-66
2022/11/21 03:23:49;;;;;;;46.50;7.38;;;;;;;16.67;100.00;98817.84;4994323;28;20516;-66
2022/11/21 03:26:15;;;;;;;33.30;7.10;;;;;;;16.39;100.00;98788.16;4998686;28;20132;-66
2022/11/21 03:28:41;;;;;;;33.53;6.95;;;;;;;16.28;100.00;98775.28;4992519;28;20035;-66
2022/11/21 03:31:07;;;;;;;34.38;6.28;;;;;;;16.34;100.00;98800.50;4999183;28;20042;-66
2022/11/21 03:33:32;;;;;;;44.03;7.35;;;;;;;16.43;100.00;98821.19;5011797;28;20436;-65
2022/11/21 03:35:58;;;;;;;41.40;7.68;;;;;;;16.13;100.00;98758.38;4997787;28;20113;-66
2022/11/21 03:38:23;;;;;;;33.67;6.68;;;;;;;16.30;100.00;98755.47;4991970;28;20424;-67
2022/11/21 03:40:48;;;;;;;34.53;6.63;;;;;;;16.50;100.00;98775.41;4992286;28;20034;-65
2022/11/21 03:43:14;;;;;;;33.05;7.30;;;;;;;16.19;100.00;98725.44;4991827;28;20097;-66
2022/11/21 03:45:39;;;;;;;41.50;7.18;;;;;;;16.42;100.00;98762.28;4990763;28;20545;-66
2022/11/21 03:48:05;;;;;;;34.70;6.82;;;;;;;16.92;100.00;98810.81;4990797;28;20485;-66
2022/11/21 03:50:30;;;;;;;32.97;6.32;;;;;;;16.76;100.00;98788.94;4991895;28;20041;-67
2022/11/21 03:52:56;;;;;;;36.35;7.50;;;;;;;16.81;100.00;98787.69;4992009;28;20501;-67
2022/11/21 03:55:21;;;;;;;37.75;6.38;;;;;;;16.55;100.00;98747.69;4991938;28;20030;-67
2022/11/21 03:57:46;;;;;;;33.33;7.25;;;;;;;16.80;100.00;98804.00;4990641;28;20037;-66
2022/11/21 04:00:13;;;;;;;29.52;6.68;;;;;;;16.50;100.00;98754.88;4991719;28;20092;-66
2022/11/21 04:02:38;;;;;;;30.85;6.97;;;;;;;16.28;100.00;98731.69;4991733;28;20030;-67
2022/11/21 04:05:04;;;;;;;38.67;7.32;;;;;;;16.17;100.00;98729.03;5010327;28;20041;-66
2022/11/21 04:07:29;;;;;;;37.63;7.88;;;;;;;16.35;100.00;98767.03;5009405;28;20029;-67
2022/11/21 04:09:54;;;;;;;42.95;7.88;;;;;;;16.20;100.00;98768.09;5010495;28;20044;-67
2022/11/21 04:12:20;;;;;;;41.20;9.27;;;;;;;15.95;100.00;98713.53;5011038;28;20117;-66
2022/11/21 04:14:45;;;;;;;43.08;14.35;;;;;;;16.20;100.00;98769.88;5009067;28;20030;-67
2022/11/21 04:17:11;;;;;;;36.28;8.48;;;;;;;16.22;100.00;98753.44;5010610;28;20034;-67
2022/11/21 04:19:36;;;;;;;40.33;7.97;;;;;;;16.25;100.00;98754.97;5011542;28;20030;-67
2022/11/21 04:22:01;;;;;;;39.30;8.10;;;;;;;16.26;100.00;98741.22;5011296;28;20477;-66
2022/11/21 04:24:27;;;;;;;43.88;7.82;;;;;;;16.12;100.00;98713.19;5011046;28;20033;-66
2022/11/21 04:26:55;;;;;;;44.13;8.00;;;;;;;15.99;100.00;98684.19;5009784;28;20110;-66
2022/11/21 04:29:21;;;;;;;34.25;6.72;;;;;;;15.92;100.00;98676.13;5011303;28;20080;-67
2022/11/21 04:31:46;;;;;;;40.33;7.95;;;;;;;16.22;100.00;98727.00;5008822;28;20427;-68
2022/11/21 04:34:11;;;;;;;38.10;7.35;;;;;;;16.23;100.00;98732.00;5011146;28;20038;-66
2022/11/21 04:36:37;;;;;;;36.85;7.18;;;;;;;15.68;100.00;98646.28;5011046;28;20032;-67
2022/11/21 04:39:02;;;;;;;30.98;7.25;;;;;;;16.22;100.00;98737.25;5011065;28;20037;-67
2022/11/21 04:41:28;;;;;;;31.65;6.78;;;;;;;15.75;100.00;98655.97;5008897;28;20026;-67
2022/11/21 04:43:53;;;;;;;36.92;8.02;;;;;;;15.93;100.00;98694.88;5010683;28;20505;-66
2022/11/21 04:46:19;;;;;;;32.92;8.02;;;;;;;15.75;100.00;98699.53;5008922;28;20030;-66
2022/11/21 04:48:44;;;;;;;28.05;6.38;;;;;;;16.08;100.00;98758.72;5008845;28;20036;-66
2022/11/21 04:51:10;;;;;;;34.00;6.20;;;;;;;16.03;100.00;98776.16;5010514;28;20473;-66
2022/11/21 04:53:35;;;;;;;28.70;6.90;;;;;;;15.57;100.00;98706.75;5010584;28;20034;-66
2022/11/21 04:56:05;;;;;;;33.22;8.43;;;;;;;15.65;100.00;98725.94;5009110;28;20510;-67
2022/11/21 04:58:30;;;;;;;26.70;8.68;;;;;;;15.32;100.00;98660.69;5008635;28;20038;-66
2022/11/21 05:00:56;;;;;;;30.40;8.80;;;;;;;15.83;100.00;98748.53;5006452;28;20037;-66
2022/11/21 05:03:21;;;;;;;29.48;7.45;;;;;;;15.61;100.00;98740.66;4990202;28;20041;-67
2022/11/21 05:05:47;;;;;;;34.08;7.55;;;;;;;15.57;100.00;98722.13;4989519;28;20485;-67
2022/11/21 05:08:12;;;;;;;38.75;7.95;;;;;;;15.68;100.00;98728.28;4991062;28;20030;-67
2022/11/21 05:13:22;;;;;;;27.77;7.78;;;;;;;15.32;100.00;98732.38;4990436;28;20065;-68
2022/11/21 05:15:50;;;;;;;33.83;8.60;;;;;;;15.00;100.00;98668.88;4990395;28;20034;-67
2022/11/21 05:18:19;;;;;;;33.35;8.55;;;;;;;15.23;100.00;98735.53;4990517;28;20085;-67
2022/11/21 05:20:44;;;;;;;38.53;9.50;;;;;;;14.91;100.00;98695.94;4990458;28;20042;-67
2022/11/21 05:23:10;;;;;;;31.48;7.60;;;;;;;15.13;100.00;98698.66;5003936;28;20100;-68
2022/11/21 05:25:35;;;;;;;36.95;7.72;;;;;;;15.28;100.00;98730.94;5008840;28;20547;-67
2022/11/21 05:28:01;;;;;;;32.42;7.93;;;;;;;15.23;100.00;98732.97;5009962;28;20030;-69
2022/11/21 05:30:26;;;;;;;27.83;7.75;;;;;;;14.99;100.00;98690.28;5008396;28;20030;-68
2022/11/21 05:32:52;;;;;;;27.40;6.95;;;;;;;15.08;100.00;98692.22;5009160;28;20068;-68
2022/11/21 05:35:17;;;;;;;26.55;6.90;;;;;;;14.99;100.00;98688.56;5009777;28;20032;-68
2022/11/21 05:37:43;;;;;;;26.75;6.82;;;;;;;14.97;100.00;98679.34;5011641;28;20046;-70
2022/11/21 05:40:09;;;;;;;32.60;7.15;;;;;;;14.72;100.00;98639.19;5012658;28;20053;-67
2022/11/21 05:45:22;;;;;;;20.90;5.78;;;;;;;15.27;100.00;98734.41;5012609;28;20072;-69
2022/11/21 05:47:47;;;;;;;20.73;5.70;;;;;;;15.72;100.00;98720.28;5012657;28;20528;-70
2022/11/21 05:50:13;;;;;;;23.10;5.18;;;;;;;15.61;100.00;98751.75;5013658;28;20113;-68
2022/11/21 05:52:38;;;;;;;27.48;5.38;;;;;;;15.71;100.00;98758.81;5012661;28;20104;-67
2022/11/21 05:55:04;;;;;;;21.02;4.38;;;;;;;15.26;100.00;98661.09;5010769;28;20026;-68
2022/11/21 05:57:29;;;;;;;18.40;4.10;;;;;;;15.53;100.00;98714.75;5013364;28;20033;-68
2022/11/21 05:59:55;;;;;;;17.75;4.50;;;;;;;15.94;100.00;98745.22;5012733;28;20473;-67
2022/11/21 06:05:05;;;;;;;24.58;4.82;;;;;;;15.59;100.00;98770.69;5012851;28;20101;-67
2022/11/21 06:07:30;;;;;;;22.80;4.60;;;;;;;15.55;100.00;98770.09;5012735;28;20030;-68
2022/11/21 06:09:56;;;;;;;25.30;4.90;;;;;;;16.41;100.00;98764.03;5012346;28;20428;-67
2022/11/21 06:12:21;;;;;;;21.02;5.05;;;;;;;16.50;100.00;98779.75;5012165;28;20030;-68
2022/11/21 06:14:46;;;;;;;22.95;5.10;;;;;;;16.48;100.00;98721.66;5012725;28;20076;-67
2022/11/21 06:17:12;;;;;;;20.63;4.72;;;;;;;16.66;100.00;98728.97;5012147;28;20552;-68
2022/11/21 06:19:37;;;;;;;25.00;5.40;;;;;;;17.14;100.00;98792.09;5011681;28;20037;-68
2022/11/21 06:22:02;;;;;;;27.20;5.25;;;;;;;17.27;100.00;98787.72;5013060;28;20489;-68
2022/11/21 06:24:28;;;;;;;19.25;4.78;;;;;;;17.57;100.00;98794.91;5012787;28;20045;-67
2022/11/21 06:26:53;;;;;;;25.90;5.78;;;;;;;18.26;100.00;98801.53;5013331;28;20030;-68
2022/11/21 06:29:21;;;;;;;30.23;5.97;;;;;;;17.62;100.00;98814.19;5013249;28;20477;-67
2022/11/21 06:31:46;;;;;;;22.02;4.88;;;;;;;17.62;100.00;98813.34;5012878;28;20034;-68
2022/11/21 06:34:12;;;;;;;24.50;5.45;;;;;;;17.71;100.00;98738.09;5013000;28;20048;-67
2022/11/21 06:36:37;;;;;;;19.45;4.90;;;;;;;16.98;100.00;98776.19;5011339;28;20116;-67
2022/11/21 06:39:03;;;;;;;28.35;5.55;;;;;;;17.03;100.00;98821.16;5012486;28;20103;-67
2022/11/21 06:41:29;;;;;;;22.92;5.25;;;;;;;18.15;100.00;98792.88;5010994;28;20084;-66
2022/11/21 06:43:58;;;;;;;32.70;6.03;;;;;;;16.96;100.00;98784.00;5011422;28;20351;-67
2022/11/21 06:46:24;;;;;;;27.95;6.82;;;;;;;16.74;100.00;98816.50;5011537;28;20026;-66
2022/11/21 06:48:49;;;;;;;25.70;7.00;;;;;;;16.57;100.00;98812.53;5012640;28;20491;-67
2022/11/21 06:51:20;;;;;;;27.75;7.72;;;;;;;17.83;100.00;98819.44;5012754;28;20076;-67
2022/11/21 06:53:47;;;;;;;35.40;7.37;;;;;;;17.86;100.00;98826.94;5013057;28;20057;-67
2022/11/21 06:56:14;;;;;;;24.50;6.25;;;;;;;16.79;100.00;98842.63;5012748;28;20492;-67
2022/11/21 06:58:39;;;;;;;29.73;5.07;;;;;;;17.07;100.00;98793.50;5012365;28;20480;-67
2022/11/21 07:01:07;;;;;;;23.95;4.80;;;;;;;16.95;100.00;98790.09;5012470;28;20064;-67
2022/11/21 07:03:33;;;;;;;25.83;4.40;;;;;;;17.38;100.00;98845.97;5011169;28;20018;-67
2022/11/21 07:06:00;;;;;;;22.55;4.03;;;;;;;17.37;100.00;98826.38;5010819;28;20034;-67
2022/11/21 07:08:30;;;;;;;23.13;4.53;;;;;;;17.46;100.00;98807.69;5012281;28;20452;-67
2022/11/21 07:11:00;;;;;;;23.33;4.68;;;;;;;17.56;100.00;98824.09;5011041;28;20113;-67
2022/11/21 07:13:27;;;;;;;22.33;3.60;;;;;;;17.90;100.00;98857.44;5012393;28;20034;-67
2022/11/21 07:15:55;;;;;;;22.25;3.55;;;;;;;17.93;100.00;98853.81;5012541;28;20033;-67
2022/11/21 07:18:21;;;;;;;26.17;3.55;;;;;;;17.64;100.00;98850.88;5012428;28;20033;-67
2022/11/21 07:20:47;;;;;;;24.90;3.80;;;;;;;17.55;100.00;98805.28;5011751;28;20075;-67
2022/11/21 07:23:13;;;;;;;16.95;4.00;;;;;;;17.64;100.00;98826.91;5010820;28;20983;-67
2022/11/21 07:25:39;;;;;;;19.25;3.30;;;;;;;17.94;100.00;98820.28;5011882;28;20099;-66
2022/11/21 07:28:06;;;;;;;20.95;3.85;;;;;;;18.30;100.00;98862.94;5010868;28;20030;-67
2022/11/21 07:30:32;;;;;;;20.75;3.55;;;;;;;18.24;100.00;98826.56;5010342;28;20040;-67
2022/11/21 07:32:59;;;;;;;20.20;3.90;;;;;;;18.46;100.00;98852.28;5010318;28;20025;-67
2022/11/21 07:35:24;;;;;;;22.05;3.85;;;;;;;18.27;100.00;98854.59;5011953;28;20080;-67
2022/11/21 07:37:50;;;;;;;20.42;3.50;;;;;;;18.45;100.00;98854.03;5011811;28;20564;-67
2022/11/21 07:40:16;;;;;;;21.42;3.40;;;;;;;18.44;100.00;98836.94;5011673;28;20036;-67
2022/11/21 07:42:42;;;;;;;26.17;3.88;;;;;;;18.57;100.00;98865.13;5010720;28;20037;-67
2022/11/21 07:45:07;;;;;;;21.30;3.40;;;;;;;18.65;100.00;98866.19;5011951;28;20033;-67
2022/11/21 07:47:33;;;;;;;17.38;4.97;;;;;;;18.47;100.00;98817.88;5011147;28;20145;-67
2022/11/21 07:49:58;;;;;;;22.80;3.70;;;;;;;18.36;100.00;98821.25;5011086;28;20041;-67
2022/11/21 07:52:24;;;;;;;26.17;3.47;;;;;;;18.56;100.00;98815.38;5010337;28;20034;-67
2022/11/21 07:54:50;;;;;;;23.30;3.40;;;;;;;18.77;100.00;98867.78;5011645;28;20122;-68
2022/11/21 07:57:16;;;;;;;22.60;2.92;;;;;;;18.84;100.00;98868.09;5011206;28;20038;-67
2022/11/21 07:59:41;;;;;;;18.02;3.70;;;;;;;18.58;100.00;98826.38;5010970;28;20076;-68
2022/11/21 08:02:22;;;;;;;27.88;4.18;;;;;;;18.02;100.00;98783.66;5011342;28;20033;-67
2022/11/21 08:04:47;;;;;;;19.25;3.30;;;;;;;18.03;100.00;98834.16;5010348;28;20029;-68
2022/11/21 08:07:14;;;;;;;15.20;2.67;;;;;;;18.10;100.00;98877.31;5010036;28;20029;-67
2022/11/21 08:09:40;;;;;;;21.88;2.92;;;;;;;17.84;100.00;98815.94;5011748;28;20026;-67
2022/11/21 08:12:05;;;;;;;22.30;2.90;;;;;;;18.73;100.00;98896.47;5009729;28;20045;-68
2022/11/21 08:14:32;;;;;;;18.95;3.50;;;;;;;18.60;100.00;98849.47;5011291;28;20030;-68
2022/11/21 08:16:58;;;;;;;18.13;3.10;;;;;;;18.65;100.00;98889.34;5010960;28;20477;-67
2022/11/21 08:19:23;;;;;;;17.25;2.80;;;;;;;18.81;100.00;98843.41;5011008;28;20080;-67
2022/11/21 08:21:48;;;;;;;21.17;2.97;;;;;;;19.00;100.00;98876.25;5009958;28;20042;-67
2022/11/21 08:24:16;;;;;;;23.98;2.60;;;;;;;18.91;100.00;98854.63;5011271;28;20527;-67
2022/11/21 08:26:44;;;;;;;14.70;2.72;;;;;;;19.30;100.00;98911.59;5011012;28;20026;-67
2022/11/21 08:29:11;;;;;;;13.38;2.10;;;;;;;19.33;100.00;98909.63;5010854;28;20044;-67
2022/11/21 08:31:37;;;;;;;12.70;2.80;;;;;;;19.40;100.00;98910.78;5011468;28;20030;-67
2022/11/21 08:34:03;;;;;;;15.73;2.63;;;;;;;19.46;100.00;98892.25;5011002;28;20029;-66
2022/11/21 08:36:28;;;;;;;18.95;2.80;;;;;;;19.47;100.00;98875.81;5010891;28;20034;-67
2022/11/21 08:38:54;;;;;;;13.45;2.40;;;;;;;19.65;100.00;98910.41;5009048;28;20096;-67
2022/11/21 08:44:05;;;;;;;12.70;2.47;;;;;;;19.94;100.00;98904.59;5010631;28;20061;-68
2022/11/21 08:46:32;;;;;;;16.83;2.60;;;;;;;19.88;100.00;98864.66;5010832;28;20033;-67
2022/11/21 08:48:58;;;;;;;12.38;2.25;;;;;;;19.88;100.00;98895.63;5010912;28;20076;-67
2022/11/21 08:51:24;;;;;;;16.70;2.75;;;;;;;19.97;100.00;98850.16;5010457;28;20045;-67
2022/11/21 08:53:49;;;;;;;10.93;2.00;;;;;;;20.09;100.00;98901.56;5010613;28;20022;-67
2022/11/21 08:56:15;;;;;;;12.07;2.25;;;;;;;19.47;100.00;98849.22;5010338;28;20040;-67
2022/11/21 08:58:40;;;;;;;12.60;2.30;;;;;;;19.99;100.00;98885.19;5010407;28;20036;-67
2022/11/21 09:01:06;;;;;;;13.05;2.65;;;;;;;19.86;100.00;98900.09;5009290;28;20133;-67
2022/11/21 09:03:31;;;;;;;20.27;2.33;;;;;;;19.51;100.00;98837.72;5009467;28;20026;-67
2022/11/21 09:05:58;;;;;;;13.05;2.13;;;;;;;20.11;100.00;98879.00;5008925;28;20208;-67
2022/11/21 09:08:24;;;;;;;16.15;2.30;;;;;;;20.31;100.00;98893.66;5009191;28;20036;-66
2022/11/21 09:10:50;;;;;;;15.43;2.53;;;;;;;20.11;100.00;98848.03;5009808;28;20113;-68
2022/11/21 09:13:15;;;;;;;11.15;1.95;;;;;;;20.02;100.00;98894.47;5013558;28;20053;-67
2022/11/21 09:18:25;;;;;;;12.82;2.75;;;;;;;20.08;100.00;98873.28;5014389;28;20547;-67
2022/11/21 09:20:50;;;;;;;10.95;2.15;;;;;;;20.08;100.00;98878.47;5014531;28;20025;-67
2022/11/21 09:23:16;;;;;;;16.63;2.72;;;;;;;20.39;100.00;98883.50;5014730;28;20026;-67
2022/11/21 09:25:43;;;;;;;17.50;2.38;;;;;;;20.36;100.00;98851.97;5014074;28;20159;-67
2022/11/21 09:28:11;;;;;;;11.27;2.28;;;;;;;20.45;100.00;98882.16;5014188;28;20040;-67
2022/11/21 09:30:37;;;;;;;10.27;2.00;;;;;;;20.38;100.00;98874.09;5014423;28;20038;-67
2022/11/21 09:33:04;;;;;;;10.05;1.90;;;;;;;20.62;100.00;98878.91;5013776;28;20064;-67
2022/11/21 09:35:31;;;;;;;8.18;1.70;;;;;;;20.34;100.00;98851.28;5014482;28;20468;-67
2022/11/21 09:37:56;;;;;;;13.57;1.60;;;;;;;20.12;100.00;98834.19;5015978;28;20050;-67
2022/11/21 09:40:22;;;;;;;9.45;1.42;;;;;;;20.41;100.00;98879.03;5013544;28;20103;-67
2022/11/21 09:42:48;;;;;;;4.65;1.10;;;;;;;20.52;100.00;98878.91;5013690;28;20424;-69
2022/11/21 09:45:41;;;;;;;10.60;1.40;;;;;;;20.42;100.00;98875.47;5012714;28;20091;-67
2022/11/21 09:48:13;;;;;;;10.60;1.23;;;;;;;20.35;100.00;98881.31;5007751;28;20438;-66
2022/11/21 09:50:43;;;;;;;8.25;1.38;;;;;;;20.12;100.00;98831.63;5014118;28;20033;-67
2022/11/21 09:53:31;;;;;;;10.55;1.10;;;;;;;20.38;100.00;98881.84;5012329;28;20088;-66
2022/11/21 09:56:11;;;;;;;10.20;1.52;;;;;;;20.39;100.00;98865.44;5013633;28;20045;-65
2022/11/21 09:58:46;;;;;;;6.72;0.88;;;;;;;20.62;100.00;98874.56;5013603;28;20073;-66
2022/11/21 10:01:13;;;;;;;7.18;0.88;;;;;;;20.45;100.00;98851.97;5013300;28;20121;-66
2022/11/21 10:03:42;;;;;;;6.22;1.70;;;;;;;20.61;100.00;98859.22;5012248;28;20556;-66
2022/11/21 10:06:16;;;;;;;7.68;1.10;;;;;;;20.61;100.00;98812.72;5013241;28;20091;-65
2022/11/21 10:09:00;;;;;;;4.13;1.23;;;;;;;20.76;100.00;98865.63;5013434;28;20925;-66
2022/11/21 10:14:49;;;;;;;6.15;1.40;;;;;;;20.56;100.00;98877.69;5013435;28;20525;-66
2022/11/21 10:17:25;;;;;;;6.25;1.17;;;;;;;20.49;100.00;98862.84;5013586;28;20029;-64
2022/11/21 10:20:03;;;;;;;5.15;1.23;;;;;;;20.42;100.00;98870.31;5013773;28;20030;-67
2022/11/21 10:22:48;;;;;;;5.00;1.30;;;;;;;20.24;100.00;98820.28;5011523;28;20061;-67
2022/11/21 10:25:21;;;;;;;4.80;0.80;;;;;;;20.40;100.00;98858.50;5012069;28;20104;-66
2022/11/21 10:27:56;;;;;;;5.10;1.00;;;;;;;20.29;100.00;98849.09;5012970;28;20536;-66
2022/11/21 10:30:22;;;;;;;6.95;0.80;;;;;;;20.24;100.00;98861.59;5013067;28;20085;-67
2022/11/21 10:32:55;;;;;;;6.78;0.90;;;;;;;19.98;100.00;98837.13;5013401;28;20030;-67
2022/11/21 10:35:24;;;;;;;4.18;0.73;;;;;;;19.93;100.00;98820.41;5012331;28;20064;-67
2022/11/21 10:37:59;;;;;;;7.00;0.80;;;;;;;20.17;100.00;98867.34;5011474;28;20037;-67
2022/11/21 10:40:38;;;;;;;5.40;0.65;;;;;;;19.61;100.00;98772.34;5008662;28;20113;-69
2022/11/21 10:45:51;;;;;;;5.80;0.70;;;;;;;19.67;100.00;98763.25;5012658;28;20084;-67
2022/11/21 10:48:17;;;;;;;2.13;0.60;;;;;;;19.92;100.00;98817.00;5011083;28;20041;-67
2022/11/21 10:50:59;;;;;;;3.72;0.70;;;;;;;20.17;100.00;98824.28;5011370;28;20034;-67
2022/11/21 10:56:19;;;;;;;7.53;0.60;;;;;;;20.21;100.00;98806.78;5012412;28;20435;-67
2022/11/21 10:58:49;;;;;;;4.95;0.70;;;;;;;20.74;100.00;98847.66;5012608;28;20038;-67
2022/11/21 11:01:18;;;;;;;3.67;0.67;;;;;;;20.84;100.00;98850.25;5012274;28;20030;-67
2022/11/21 11:03:43;;;;;;;6.38;0.80;;;;;;;20.75;100.00;98822.66;5010694;28;20288;-67
2022/11/21 11:06:09;;;;;;;8.50;0.90;;;;;;;20.47;100.00;98790.69;5012026;28;20030;-67
2022/11/21 11:08:51;;;;;;;4.18;0.65;;;;;;;20.37;100.00;98807.09;5012294;28;20745;-66
2022/11/21 11:11:20;;;;;;;6.63;0.70;;;;;;;20.32;100.00;98791.22;5012066;28;20037;-66
2022/11/21 11:14:11;;;;;;;4.72;0.70;;;;;;;20.58;100.00;98839.63;5011836;28;20045;-67
2022/11/21 11:16:42;;;;;;;4.97;0.98;;;;;;;20.47;100.00;98788.09;5012168;28;20112;-67
2022/11/21 11:19:14;;;;;;;12.13;0.75;;;;;;;20.80;100.00;98840.34;5012316;28;20033;-66
2022/11/21 11:21:45;;;;;;;7.90;1.52;;;;;;;20.83;100.00;98827.97;5012008;28;20501;-66
2022/11/21 11:24:11;;;;;;;6.07;1.20;;;;;;;21.00;100.00;98840.19;5011977;28;20026;-67
2022/11/21 11:26:45;;;;;;;6.78;0.88;;;;;;;21.17;100.00;98838.75;5011833;28;20040;-66
2022/11/21 11:29:22;;;;;;;7.63;0.80;;;;;;;20.79;100.00;98784.44;5010633;28;20448;-67
2022/11/21 11:31:53;;;;;;;5.03;0.90;;;;;;;21.48;100.00;98842.78;5011809;28;20532;-67
2022/11/21 11:34:19;;;;;;;6.65;0.88;;;;;;;21.27;100.00;98835.16;5011229;28;20033;-67
2022/11/21 11:36:53;;;;;;;4.72;0.82;;;;;;;21.02;100.00;98757.38;5012001;28;20103;-68
2022/11/21 11:39:31;;;;;;;3.50;0.90;;;;;;;21.38;100.00;98829.03;5010497;28;20085;-68
2022/11/21 11:48:11;;;;;;;6.03;1.60;;;;;;;21.01;100.00;98849.63;5011941;28;20060;-67
2022/11/21 11:50:45;;;;;;;4.53;1.10;;;;;;;20.53;100.00;98790.16;5011933;28;20033;-67